Terminal Aerodrome Forecast
Issued by NWS

Home | Current Version | Previous Version | Text Only | Print | Product List | Glossary On
Versions: 1 2 3 4 5 6 7 8 9 10 11 12 13 14 15 16 17 18 19 20 21 22 23 24 25 26 27 28 29 30
000
FTUS41 KPBZ 231100
TAFAGC
TAF
KAGC 231121Z 2312/2412 33008KT P6SM SCT015 BKN025
      TEMPO 2312/2314 BKN015
     FM231600 32010KT P6SM SCT035
     FM240600 29003KT P6SM SCT200=

USA.gov is the U.S. government's official web portal to all federal, state and local government web resources and services.